sensor_id;sensor_type;location;lat;lon;timestamp;pressure;altitude;pressure_sealevel;temperature;humidity
62248;BME280;48237;50.140;8.486;2023-04-03T00:00:33;100645.77;;;0.95;79.41
62248;BME280;48237;50.140;8.486;2023-04-03T00:03:00;100644.40;;;1.40;77.42
62248;BME280;48237;50.140;8.486;2023-04-03T00:05:28;100648.59;;;0.61;80.70
62248;BME280;48237;50.140;8.486;2023-04-03T00:07:55;100643.24;;;1.21;77.86
62248;BME280;48237;50.140;8.486;2023-04-03T00:10:22;100643.72;;;1.95;76.16
62248;BME280;48237;50.140;8.486;2023-04-03T00:12:49;100641.22;;;0.71;77.68
62248;BME280;48237;50.140;8.486;2023-04-03T00:15:16;100643.40;;;0.79;75.88
62248;BME280;48237;50.140;8.486;2023-04-03T00:17:44;100643.42;;;2.07;73.32
62248;BME280;48237;50.140;8.486;2023-04-03T00:20:11;100640.85;;;1.43;74.38
62248;BME280;48237;50.140;8.486;2023-04-03T00:22:38;100646.80;;;2.54;72.55
62248;BME280;48237;50.140;8.486;2023-04-03T00:25:07;100648.81;;;2.22;72.21
62248;BME280;48237;50.140;8.486;2023-04-03T00:27:36;100650.55;;;2.43;72.84
62248;BME280;48237;50.140;8.486;2023-04-03T00:30:04;100651.83;;;2.44;71.96
62248;BME280;48237;50.140;8.486;2023-04-03T00:32:31;100649.42;;;2.82;69.60
62248;BME280;48237;50.140;8.486;2023-04-03T00:34:58;100641.80;;;3.20;67.32
62248;BME280;48237;50.140;8.486;2023-04-03T00:37:25;100645.49;;;1.46;72.48
62248;BME280;48237;50.140;8.486;2023-04-03T00:39:53;100650.57;;;1.72;71.84
62248;BME280;48237;50.140;8.486;2023-04-03T00:42:20;100653.10;;;1.71;73.74
62248;BME280;48237;50.140;8.486;2023-04-03T00:45:27;100652.56;;;2.56;71.26
62248;BME280;48237;50.140;8.486;2023-04-03T00:47:56;100650.86;;;2.32;68.62
62248;BME280;48237;50.140;8.486;2023-04-03T00:50:24;100649.79;;;1.62;71.05
62248;BME280;48237;50.140;8.486;2023-04-03T00:52:51;100652.29;;;1.99;70.68
62248;BME280;48237;50.140;8.486;2023-04-03T00:55:18;100646.06;;;2.06;70.67
62248;BME280;48237;50.140;8.486;2023-04-03T00:57:46;100652.11;;;2.13;69.77
62248;BME280;48237;50.140;8.486;2023-04-03T01:00:17;100651.47;;;1.86;72.22
62248;BME280;48237;50.140;8.486;2023-04-03T01:02:45;100651.75;;;2.70;69.38
62248;BME280;48237;50.140;8.486;2023-04-03T01:05:13;100647.23;;;3.39;67.62
62248;BME280;48237;50.140;8.486;2023-04-03T01:07:43;100653.03;;;1.29;75.90
62248;BME280;48237;50.140;8.486;2023-04-03T01:10:13;100647.80;;;1.53;76.22
62248;BME280;48237;50.140;8.486;2023-04-03T01:12:43;100654.60;;;1.37;76.21
62248;BME280;48237;50.140;8.486;2023-04-03T01:15:13;100654.92;;;2.51;71.78
62248;BME280;48237;50.140;8.486;2023-04-03T01:17:41;100662.50;;;2.03;72.42
62248;BME280;48237;50.140;8.486;2023-04-03T01:20:59;100658.73;;;1.87;74.66
62248;BME280;48237;50.140;8.486;2023-04-03T01:23:43;100655.69;;;3.04;70.96
62248;BME280;48237;50.140;8.486;2023-04-03T01:26:14;100661.45;;;2.64;71.53
62248;BME280;48237;50.140;8.486;2023-04-03T01:28:41;100656.48;;;2.70;72.27
62248;BME280;48237;50.140;8.486;2023-04-03T01:31:16;100661.10;;;2.44;73.45
62248;BME280;48237;50.140;8.486;2023-04-03T01:33:45;100663.05;;;1.75;76.99
62248;BME280;48237;50.140;8.486;2023-04-03T01:36:15;100663.74;;;1.68;78.96
62248;BME280;48237;50.140;8.486;2023-04-03T01:38:43;100664.68;;;1.20;82.17
62248;BME280;48237;50.140;8.486;2023-04-03T01:41:10;100662.52;;;1.75;78.43
62248;BME280;48237;50.140;8.486;2023-04-03T01:43:37;100660.65;;;1.48;80.21
62248;BME280;48237;50.140;8.486;2023-04-03T01:46:04;100666.87;;;1.24;84.96
62248;BME280;48237;50.140;8.486;2023-04-03T01:48:32;100663.81;;;1.50;83.56
62248;BME280;48237;50.140;8.486;2023-04-03T01:50:59;100665.25;;;2.05;79.76
62248;BME280;48237;50.140;8.486;2023-04-03T01:53:26;100667.20;;;2.44;78.80
62248;BME280;48237;50.140;8.486;2023-04-03T01:55:53;100665.16;;;2.70;77.74
62248;BME280;48237;50.140;8.486;2023-04-03T01:58:20;100665.73;;;2.22;76.17
62248;BME280;48237;50.140;8.486;2023-04-03T02:00:47;100671.45;;;1.89;79.71
62248;BME280;48237;50.140;8.486;2023-04-03T02:03:15;100669.87;;;1.86;79.42
62248;BME280;48237;50.140;8.486;2023-04-03T02:05:42;100668.18;;;1.98;79.47
62248;BME280;48237;50.140;8.486;2023-04-03T02:08:09;100667.59;;;1.48;83.57
62248;BME280;48237;50.140;8.486;2023-04-03T02:10:36;100670.78;;;0.76;87.89
62248;BME280;48237;50.140;8.486;2023-04-03T02:13:03;100664.07;;;1.89;83.53
62248;BME280;48237;50.140;8.486;2023-04-03T02:15:30;100665.39;;;1.93;81.96
62248;BME280;48237;50.140;8.486;2023-04-03T02:17:58;100670.06;;;0.75;92.11
62248;BME280;48237;50.140;8.486;2023-04-03T02:20:25;100664.98;;;1.08;88.88
62248;BME280;48237;50.140;8.486;2023-04-03T02:22:52;100665.56;;;0.44;94.62
62248;BME280;48237;50.140;8.486;2023-04-03T02:25:19;100661.83;;;1.10;92.27
62248;BME280;48237;50.140;8.486;2023-04-03T02:27:47;100658.20;;;1.94;84.67
62248;BME280;48237;50.140;8.486;2023-04-03T02:30:14;100664.10;;;1.37;85.83
62248;BME280;48237;50.140;8.486;2023-04-03T02:32:41;100667.90;;;1.61;86.87
62248;BME280;48237;50.140;8.486;2023-04-03T02:35:08;100663.48;;;1.78;86.43
62248;BME280;48237;50.140;8.486;2023-04-03T02:37:37;100666.26;;;0.94;90.12
62248;BME280;48237;50.140;8.486;2023-04-03T02:40:05;100671.60;;;0.54;96.14
62248;BME280;48237;50.140;8.486;2023-04-03T02:42:33;100669.63;;;1.09;92.38
62248;BME280;48237;50.140;8.486;2023-04-03T02:45:00;100668.29;;;1.48;88.46
62248;BME280;48237;50.140;8.486;2023-04-03T02:47:28;100663.25;;;1.97;83.90
62248;BME280;48237;50.140;8.486;2023-04-03T02:49:55;100664.74;;;2.11;85.27
62248;BME280;48237;50.140;8.486;2023-04-03T02:52:22;100669.86;;;1.28;88.20
62248;BME280;48237;50.140;8.486;2023-04-03T02:54:49;100679.87;;;0.66;94.39
62248;BME280;48237;50.140;8.486;2023-04-03T02:57:16;100669.66;;;1.09;94.72
62248;BME280;48237;50.140;8.486;2023-04-03T02:59:43;100670.89;;;1.01;93.20
62248;BME280;48237;50.140;8.486;2023-04-03T03:02:11;100665.25;;;0.57;96.36
62248;BME280;48237;50.140;8.486;2023-04-03T03:04:38;100663.46;;;1.04;93.83
62248;BME280;48237;50.140;8.486;2023-04-03T03:07:05;100670.69;;;1.15;90.72
62248;BME280;48237;50.140;8.486;2023-04-03T03:09:33;100672.85;;;0.41;94.52
62248;BME280;48237;50.140;8.486;2023-04-03T03:12:00;100670.99;;;0.81;92.78
62248;BME280;48237;50.140;8.486;2023-04-03T03:14:27;100672.12;;;0.30;95.50
62248;BME280;48237;50.140;8.486;2023-04-03T03:16:55;100670.23;;;0.51;93.05
62248;BME280;48237;50.140;8.486;2023-04-03T03:19:22;100671.49;;;0.73;91.47
62248;BME280;48237;50.140;8.486;2023-04-03T03:21:49;100666.66;;;1.23;86.25
62248;BME280;48237;50.140;8.486;2023-04-03T03:24:16;100673.52;;;0.68;88.70
62248;BME280;48237;50.140;8.486;2023-04-03T03:26:43;100676.90;;;0.78;89.37
62248;BME280;48237;50.140;8.486;2023-04-03T03:29:11;100673.98;;;0.24;90.23
62248;BME280;48237;50.140;8.486;2023-04-03T03:31:38;100679.00;;;0.27;93.44
62248;BME280;48237;50.140;8.486;2023-04-03T03:34:05;100672.13;;;0.53;91.90
62248;BME280;48237;50.140;8.486;2023-04-03T03:36:32;100674.98;;;0.61;91.35
62248;BME280;48237;50.140;8.486;2023-04-03T03:38:59;100680.91;;;0.53;91.62
62248;BME280;48237;50.140;8.486;2023-04-03T03:41:26;100677.63;;;0.19;96.20
62248;BME280;48237;50.140;8.486;2023-04-03T03:43:54;100678.37;;;1.19;92.14
62248;BME280;48237;50.140;8.486;2023-04-03T03:46:21;100684.87;;;-0.24;97.34
62248;BME280;48237;50.140;8.486;2023-04-03T03:48:48;100682.26;;;0.50;94.83
62248;BME280;48237;50.140;8.486;2023-04-03T03:51:15;100684.04;;;-0.30;92.83
62248;BME280;48237;50.140;8.486;2023-04-03T03:53:42;100689.15;;;-0.59;97.24
62248;BME280;48237;50.140;8.486;2023-04-03T03:56:10;100691.29;;;0.35;90.53
62248;BME280;48237;50.140;8.486;2023-04-03T03:58:37;100688.35;;;-0.78;93.65
62248;BME280;48237;50.140;8.486;2023-04-03T04:01:05;100701.62;;;-0.20;89.21
62248;BME280;48237;50.140;8.486;2023-04-03T04:03:33;100692.74;;;-0.48;93.96
62248;BME280;48237;50.140;8.486;2023-04-03T04:06:00;100701.18;;;-0.91;92.46
62248;BME280;48237;50.140;8.486;2023-04-03T04:08:28;100701.85;;;-0.98;95.48
62248;BME280;48237;50.140;8.486;2023-04-03T04:10:55;100701.51;;;-0.80;94.25
62248;BME280;48237;50.140;8.486;2023-04-03T04:13:23;100702.09;;;-0.99;96.49
62248;BME280;48237;50.140;8.486;2023-04-03T04:15:50;100702.53;;;-0.99;95.98
62248;BME280;48237;50.140;8.486;2023-04-03T04:18:18;100702.64;;;-0.55;96.35
62248;BME280;48237;50.140;8.486;2023-04-03T04:20:45;100700.34;;;-0.90;93.06
62248;BME280;48237;50.140;8.486;2023-04-03T04:23:12;100688.36;;;-0.33;92.93
62248;BME280;48237;50.140;8.486;2023-04-03T04:25:39;100695.63;;;-0.91;97.22
62248;BME280;48237;50.140;8.486;2023-04-03T04:28:06;100692.94;;;-0.31;93.95
62248;BME280;48237;50.140;8.486;2023-04-03T04:30:34;100700.23;;;-1.10;97.57
62248;BME280;48237;50.140;8.486;2023-04-03T04:33:01;100702.76;;;-0.46;93.79
62248;BME280;48237;50.140;8.486;2023-04-03T04:35:28;100695.70;;;-1.10;99.01
62248;BME280;48237;50.140;8.486;2023-04-03T04:37:55;100706.42;;;-1.23;97.86
62248;BME280;48237;50.140;8.486;2023-04-03T04:40:23;100705.87;;;-0.84;97.18
62248;BME280;48237;50.140;8.486;2023-04-03T04:42:50;100714.93;;;-0.43;92.60
62248;BME280;48237;50.140;8.486;2023-04-03T04:45:18;100711.49;;;-0.86;94.69
62248;BME280;48237;50.140;8.486;2023-04-03T04:47:45;100708.85;;;-0.96;94.96
62248;BME280;48237;50.140;8.486;2023-04-03T04:50:13;100706.13;;;-0.54;93.53
62248;BME280;48237;50.140;8.486;2023-04-03T04:52:40;100707.92;;;-1.03;95.75
62248;BME280;48237;50.140;8.486;2023-04-03T04:55:08;100709.41;;;-1.04;94.64
62248;BME280;48237;50.140;8.486;2023-04-03T04:57:35;100718.00;;;-0.96;96.93
62248;BME280;48237;50.140;8.486;2023-04-03T05:00:03;100716.74;;;-1.84;100.00
62248;BME280;48237;50.140;8.486;2023-04-03T05:02:30;100723.10;;;-0.66;95.22
62248;BME280;48237;50.140;8.486;2023-04-03T05:04:58;100726.81;;;-0.86;94.72
62248;BME280;48237;50.140;8.486;2023-04-03T05:07:25;100725.77;;;-0.73;93.38
62248;BME280;48237;50.140;8.486;2023-04-03T05:09:52;100720.26;;;-0.62;91.45
62248;BME280;48237;50.140;8.486;2023-04-03T05:12:19;100728.34;;;-1.21;97.51
62248;BME280;48237;50.140;8.486;2023-04-03T05:14:46;100724.74;;;-1.11;96.73
62248;BME280;48237;50.140;8.486;2023-04-03T05:17:13;100729.16;;;-0.51;93.40
62248;BME280;48237;50.140;8.486;2023-04-03T05:19:40;100722.27;;;-0.41;90.75
62248;BME280;48237;50.140;8.486;2023-04-03T05:22:07;100734.04;;;-0.85;94.07
62248;BME280;48237;50.140;8.486;2023-04-03T05:24:35;100734.19;;;-0.70;94.39
62248;BME280;48237;50.140;8.486;2023-04-03T05:27:02;100733.37;;;-1.01;95.14
62248;BME280;48237;50.140;8.486;2023-04-03T05:29:30;100737.06;;;-0.91;92.21
62248;BME280;48237;50.140;8.486;2023-04-03T05:31:57;100735.73;;;-0.52;91.13
62248;BME280;48237;50.140;8.486;2023-04-03T05:34:25;100745.84;;;-0.77;92.53
62248;BME280;48237;50.140;8.486;2023-04-03T05:36:52;100743.10;;;-1.76;100.00
62248;BME280;48237;50.140;8.486;2023-04-03T05:39:19;100757.76;;;-1.38;100.00
62248;BME280;48237;50.140;8.486;2023-04-03T05:41:46;100749.58;;;-1.11;99.94
62248;BME280;48237;50.140;8.486;2023-04-03T05:44:14;100752.97;;;-0.76;93.06
62248;BME280;48237;50.140;8.486;2023-04-03T05:46:41;100750.33;;;-1.46;96.82
62248;BME280;48237;50.140;8.486;2023-04-03T05:49:08;100749.58;;;-0.30;89.69
62248;BME280;48237;50.140;8.486;2023-04-03T05:51:37;100757.36;;;-1.08;94.62
62248;BME280;48237;50.140;8.486;2023-04-03T05:54:09;100759.98;;;-0.98;91.32
62248;BME280;48237;50.140;8.486;2023-04-03T05:56:38;100757.24;;;-0.41;90.65
62248;BME280;48237;50.140;8.486;2023-04-03T05:59:05;100761.15;;;-0.62;91.32
62248;BME280;48237;50.140;8.486;2023-04-03T06:01:32;100762.79;;;-0.95;94.80
62248;BME280;48237;50.140;8.486;2023-04-03T06:04:00;100770.34;;;-0.57;89.69
62248;BME280;48237;50.140;8.486;2023-04-03T06:06:43;100777.05;;;-0.50;91.91
62248;BME280;48237;50.140;8.486;2023-04-03T06:09:11;100772.48;;;-0.41;88.21
62248;BME280;48237;50.140;8.486;2023-04-03T06:11:38;100770.85;;;-1.05;93.65
62248;BME280;48237;50.140;8.486;2023-04-03T06:14:05;100783.70;;;-0.44;90.62
62248;BME280;48237;50.140;8.486;2023-04-03T06:16:32;100781.65;;;-0.65;92.36
62248;BME280;48237;50.140;8.486;2023-04-03T06:19:00;100787.61;;;-0.94;91.34
62248;BME280;48237;50.140;8.486;2023-04-03T06:21:27;100777.08;;;-0.06;90.48
62248;BME280;48237;50.140;8.486;2023-04-03T06:23:54;100785.54;;;-0.32;89.89
62248;BME280;48237;50.140;8.486;2023-04-03T06:26:21;100794.52;;;-0.71;92.28
62248;BME280;48237;50.140;8.486;2023-04-03T06:28:49;100787.63;;;-0.75;96.14
62248;BME280;48237;50.140;8.486;2023-04-03T06:31:16;100792.10;;;-1.11;97.43
62248;BME280;48237;50.140;8.486;2023-04-03T06:33:43;100794.70;;;-0.34;92.09
62248;BME280;48237;50.140;8.486;2023-04-03T06:36:11;100799.45;;;-1.17;94.96
62248;BME280;48237;50.140;8.486;2023-04-03T06:38:39;100808.38;;;-1.08;97.16
62248;BME280;48237;50.140;8.486;2023-04-03T06:41:06;100796.21;;;-0.90;92.04
62248;BME280;48237;50.140;8.486;2023-04-03T06:43:33;100796.55;;;-0.57;91.47
62248;BME280;48237;50.140;8.486;2023-04-03T06:46:00;100806.13;;;-0.82;91.77
62248;BME280;48237;50.140;8.486;2023-04-03T06:48:28;100806.38;;;-0.64;90.52
62248;BME280;48237;50.140;8.486;2023-04-03T06:50:55;100791.44;;;-0.16;84.60
62248;BME280;48237;50.140;8.486;2023-04-03T06:53:22;100805.71;;;-0.07;87.86
62248;BME280;48237;50.140;8.486;2023-04-03T06:55:49;100807.72;;;-0.52;90.35
62248;BME280;48237;50.140;8.486;2023-04-03T06:58:16;100809.25;;;-0.82;90.18
62248;BME280;48237;50.140;8.486;2023-04-03T07:00:44;100809.30;;;0.17;88.62
62248;BME280;48237;50.140;8.486;2023-04-03T07:03:11;100809.54;;;0.15;83.45
62248;BME280;48237;50.140;8.486;2023-04-03T07:05:38;100809.78;;;1.24;81.57
62248;BME280;48237;50.140;8.486;2023-04-03T07:08:05;100813.23;;;0.24;83.68
62248;BME280;48237;50.140;8.486;2023-04-03T07:10:33;100826.67;;;-0.35;84.86
62248;BME280;48237;50.140;8.486;2023-04-03T07:13:00;100816.18;;;0.50;83.00
62248;BME280;48237;50.140;8.486;2023-04-03T07:15:27;100819.33;;;1.11;79.23
62248;BME280;48237;50.140;8.486;2023-04-03T07:17:54;100822.79;;;0.50;82.58
62248;BME280;48237;50.140;8.486;2023-04-03T07:20:22;100831.28;;;0.09;82.70
62248;BME280;48237;50.140;8.486;2023-04-03T07:22:49;100826.13;;;0.74;79.86
62248;BME280;48237;50.140;8.486;2023-04-03T07:25:16;100833.25;;;0.53;84.42
62248;BME280;48237;50.140;8.486;2023-04-03T07:27:43;100845.64;;;0.06;83.78
62248;BME280;48237;50.140;8.486;2023-04-03T07:30:11;100855.68;;;0.58;84.18
62248;BME280;48237;50.140;8.486;2023-04-03T07:32:38;100844.64;;;0.44;81.47
62248;BME280;48237;50.140;8.486;2023-04-03T07:35:06;100850.13;;;0.68;79.52
62248;BME280;48237;50.140;8.486;2023-04-03T07:37:33;100852.88;;;-0.02;84.58
62248;BME280;48237;50.140;8.486;2023-04-03T07:40:00;100848.79;;;0.47;83.17
62248;BME280;48237;50.140;8.486;2023-04-03T07:42:27;100850.06;;;0.75;83.65
62248;BME280;48237;50.140;8.486;2023-04-03T07:44:55;100850.60;;;0.82;80.27
62248;BME280;48237;50.140;8.486;2023-04-03T07:47:22;100871.37;;;0.62;84.24
62248;BME280;48237;50.140;8.486;2023-04-03T07:49:49;100857.50;;;1.06;80.42
62248;BME280;48237;50.140;8.486;2023-04-03T07:52:16;100870.11;;;0.59;83.13
62248;BME280;48237;50.140;8.486;2023-04-03T07:54:43;100877.25;;;-0.08;84.25
62248;BME280;48237;50.140;8.486;2023-04-03T07:57:11;100865.32;;;0.34;85.25
62248;BME280;48237;50.140;8.486;2023-04-03T07:59:38;100868.04;;;0.07;84.48
62248;BME280;48237;50.140;8.486;2023-04-03T08:02:05;100870.54;;;0.52;85.42
62248;BME280;48237;50.140;8.486;2023-04-03T08:04:32;100885.38;;;0.38;84.42
62248;BME280;48237;50.140;8.486;2023-04-03T08:06:59;100883.19;;;0.10;84.69
62248;BME280;48237;50.140;8.486;2023-04-03T08:09:26;100877.18;;;0.49;84.67
62248;BME280;48237;50.140;8.486;2023-04-03T08:11:54;100865.61;;;0.80;83.28
62248;BME280;48237;50.140;8.486;2023-04-03T08:14:21;100868.12;;;0.83;83.43
62248;BME280;48237;50.140;8.486;2023-04-03T08:16:48;100876.14;;;0.01;86.12
62248;BME280;48237;50.140;8.486;2023-04-03T08:19:16;100869.61;;;0.79;82.40
62248;BME280;48237;50.140;8.486;2023-04-03T08:21:43;100878.58;;;0.33;83.84
62248;BME280;48237;50.140;8.486;2023-04-03T08:24:10;100881.46;;;0.50;87.97
62248;BME280;48237;50.140;8.486;2023-04-03T08:26:37;100875.19;;;0.23;82.80
62248;BME280;48237;50.140;8.486;2023-04-03T08:29:05;100869.07;;;0.37;83.97
62248;BME280;48237;50.140;8.486;2023-04-03T08:31:32;100871.05;;;0.61;82.29
62248;BME280;48237;50.140;8.486;2023-04-03T08:33:59;100862.62;;;0.81;79.88
62248;BME280;48237;50.140;8.486;2023-04-03T08:36:28;100862.49;;;0.98;81.73
62248;BME280;48237;50.140;8.486;2023-04-03T08:38:56;100875.11;;;0.86;78.23
62248;BME280;48237;50.140;8.486;2023-04-03T08:41:29;100870.96;;;0.58;82.29
62248;BME280;48237;50.140;8.486;2023-04-03T08:44:07;100858.77;;;0.50;78.40
62248;BME280;48237;50.140;8.486;2023-04-03T08:46:47;100859.88;;;0.88;82.17
62248;BME280;48237;50.140;8.486;2023-04-03T08:49:22;100868.08;;;1.17;80.10
62248;BME280;48237;50.140;8.486;2023-04-03T08:51:51;100857.54;;;0.81;77.92
62248;BME280;48237;50.140;8.486;2023-04-03T08:54:26;100855.53;;;0.90;78.99
62248;BME280;48237;50.140;8.486;2023-04-03T08:56:55;100862.95;;;1.61;75.48
62248;BME280;48237;50.140;8.486;2023-04-03T08:59:28;100852.87;;;1.64;76.71
62248;BME280;48237;50.140;8.486;2023-04-03T09:01:57;100874.28;;;0.70;76.55
62248;BME280;48237;50.140;8.486;2023-04-03T09:04:26;100850.35;;;0.54;79.91
62248;BME280;48237;50.140;8.486;2023-04-03T09:06:58;100855.21;;;1.55;77.64
62248;BME280;48237;50.140;8.486;2023-04-03T09:09:32;100872.42;;;1.55;71.00
62248;BME280;48237;50.140;8.486;2023-04-03T09:12:10;100860.88;;;1.05;73.03
62248;BME280;48237;50.140;8.486;2023-04-03T09:14:42;100878.09;;;0.87;74.85
62248;BME280;48237;50.140;8.486;2023-04-03T09:17:17;100864.54;;;1.37;71.42
62248;BME280;48237;50.140;8.486;2023-04-03T09:19:51;100862.21;;;1.85;67.14
62248;BME280;48237;50.140;8.486;2023-04-03T09:22:24;100855.98;;;0.88;70.73
62248;BME280;48237;50.140;8.486;2023-04-03T09:24:57;100875.44;;;0.51;73.83
62248;BME280;48237;50.140;8.486;2023-04-03T09:27:26;100860.43;;;1.10;73.53
62248;BME280;48237;50.140;8.486;2023-04-03T09:29:55;100860.32;;;0.19;76.74
62248;BME280;48237;50.140;8.486;2023-04-03T09:32:27;100856.40;;;1.55;75.92
62248;BME280;48237;50.140;8.486;2023-04-03T09:34:57;100872.50;;;1.34;71.34
62248;BME280;48237;50.140;8.486;2023-04-03T09:37:37;100859.83;;;1.00;73.05
62248;BME280;48237;50.140;8.486;2023-04-03T09:40:05;100868.72;;;0.47;75.49
62248;BME280;48237;50.140;8.486;2023-04-03T09:42:40;100874.50;;;0.86;75.77
62248;BME280;48237;50.140;8.486;2023-04-03T09:45:23;100857.40;;;0.78;76.68
62248;BME280;48237;50.140;8.486;2023-04-03T09:48:06;100862.65;;;0.94;76.80
62248;BME280;48237;50.140;8.486;2023-04-03T09:50:34;100884.20;;;0.58;81.13
62248;BME280;48237;50.140;8.486;2023-04-03T09:53:06;100863.94;;;0.69;80.68
62248;BME280;48237;50.140;8.486;2023-04-03T09:55:42;100874.20;;;0.57;79.75
62248;BME280;48237;50.140;8.486;2023-04-03T09:58:25;100855.62;;;0.79;78.73
62248;BME280;48237;50.140;8.486;2023-04-03T10:00:55;100864.33;;;0.95;73.12
62248;BME280;48237;50.140;8.486;2023-04-03T10:03:25;100873.58;;;0.72;73.45
62248;BME280;48237;50.140;8.486;2023-04-03T10:05:53;100870.03;;;0.20;75.58
62248;BME280;48237;50.140;8.486;2023-04-03T10:08:23;100882.84;;;0.46;76.94
62248;BME280;48237;50.140;8.486;2023-04-03T10:11:09;100875.57;;;0.37;76.58
62248;BME280;48237;50.140;8.486;2023-04-03T10:13:50;100858.29;;;1.04;76.37
62248;BME280;48237;50.140;8.486;2023-04-03T10:16:21;100858.89;;;1.46;72.82
62248;BME280;48237;50.140;8.486;2023-04-03T10:18:59;100857.17;;;1.42;68.43
62248;BME280;48237;50.140;8.486;2023-04-03T10:21:35;100858.91;;;1.61;68.65
62248;BME280;48237;50.140;8.486;2023-04-03T10:24:10;100868.11;;;0.66;70.97
62248;BME280;48237;50.140;8.486;2023-04-03T10:26:45;100861.11;;;0.93;71.27
62248;BME280;48237;50.140;8.486;2023-04-03T10:29:25;100860.47;;;1.24;70.39
62248;BME280;48237;50.140;8.486;2023-04-03T10:32:03;100863.79;;;1.44;69.66
62248;BME280;48237;50.140;8.486;2023-04-03T10:34:38;100851.51;;;1.72;68.98
62248;BME280;48237;50.140;8.486;2023-04-03T10:37:13;100858.17;;;1.25;69.40
62248;BME280;48237;50.140;8.486;2023-04-03T10:39:46;100853.76;;;1.28;65.00
62248;BME280;48237;50.140;8.486;2023-04-03T10:42:24;100858.54;;;1.09;67.91
62248;BME280;48237;50.140;8.486;2023-04-03T10:45:07;100843.36;;;0.91;68.84
62248;BME280;48237;50.140;8.486;2023-04-03T10:47:42;100855.07;;;1.20;68.14
62248;BME280;48237;50.140;8.486;2023-04-03T10:50:26;100877.03;;;1.81;62.90
62248;BME280;48237;50.140;8.486;2023-04-03T10:53:00;100854.10;;;1.24;64.31
62248;BME280;48237;50.140;8.486;2023-04-03T10:55:36;100852.43;;;1.56;64.19
62248;BME280;48237;50.140;8.486;2023-04-03T10:58:07;100831.60;;;1.78;63.52
62248;BME280;48237;50.140;8.486;2023-04-03T11:00:44;100840.02;;;2.09;65.16
62248;BME280;48237;50.140;8.486;2023-04-03T11:03:16;100834.65;;;1.78;63.44
62248;BME280;48237;50.140;8.486;2023-04-03T11:05:45;100816.71;;;1.78;63.32
62248;BME280;48237;50.140;8.486;2023-04-03T11:08:23;100834.67;;;1.52;62.77
62248;BME280;48237;50.140;8.486;2023-04-03T11:10:54;100836.10;;;1.79;63.11
62248;BME280;48237;50.140;8.486;2023-04-03T11:13:26;100826.59;;;1.06;63.98
62248;BME280;48237;50.140;8.486;2023-04-03T11:15:54;100826.84;;;1.39;64.11
62248;BME280;48237;50.140;8.486;2023-04-03T11:18:28;100819.68;;;1.00;64.46
62248;BME280;48237;50.140;8.486;2023-04-03T11:21:02;100822.50;;;2.25;60.70
62248;BME280;48237;50.140;8.486;2023-04-03T11:23:33;100821.97;;;2.58;58.92
62248;BME280;48237;50.140;8.486;2023-04-03T11:26:09;100830.37;;;2.05;59.19
62248;BME280;48237;50.140;8.486;2023-04-03T11:28:36;100813.06;;;2.00;57.87
62248;BME280;48237;50.140;8.486;2023-04-03T11:31:12;100813.28;;;2.20;60.34
62248;BME280;48237;50.140;8.486;2023-04-03T11:33:47;100815.13;;;2.59;57.84
62248;BME280;48237;50.140;8.486;2023-04-03T11:36:22;100818.87;;;1.80;59.00
62248;BME280;48237;50.140;8.486;2023-04-03T11:38:54;100829.03;;;1.95;58.41
62248;BME280;48237;50.140;8.486;2023-04-03T11:41:26;100822.89;;;1.80;58.79
62248;BME280;48237;50.140;8.486;2023-04-03T11:43:58;100806.83;;;1.49;58.47
62248;BME280;48237;50.140;8.486;2023-04-03T11:46:50;100798.22;;;2.19;57.46
62248;BME280;48237;50.140;8.486;2023-04-03T11:51:43;100810.88;;;2.66;56.35
62248;BME280;48237;50.140;8.486;2023-04-03T11:55:56;100791.39;;;2.28;56.77
62248;BME280;48237;50.140;8.486;2023-04-03T11:58:26;100804.18;;;2.41;56.35
62248;BME280;48237;50.140;8.486;2023-04-03T12:00:57;100797.25;;;1.68;55.59
62248;BME280;48237;50.140;8.486;2023-04-03T12:04:05;100798.25;;;1.66;54.85
62248;BME280;48237;50.140;8.486;2023-04-03T12:07:17;100789.39;;;1.93;54.65
62248;BME280;48237;50.140;8.486;2023-04-03T12:09:58;100786.81;;;2.61;52.07
62248;BME280;48237;50.140;8.486;2023-04-03T12:12:31;100800.33;;;2.52;53.30
62248;BME280;48237;50.140;8.486;2023-04-03T12:16:05;100785.27;;;2.33;53.77
62248;BME280;48237;50.140;8.486;2023-04-03T12:18:44;100779.94;;;2.55;53.77
62248;BME280;48237;50.140;8.486;2023-04-03T12:21:21;100790.84;;;2.21;55.38
62248;BME280;48237;50.140;8.486;2023-04-03T12:24:00;100787.62;;;1.83;55.19
62248;BME280;48237;50.140;8.486;2023-04-03T12:26:32;100778.55;;;2.19;55.33
62248;BME280;48237;50.140;8.486;2023-04-03T12:29:02;100773.98;;;2.27;55.30
62248;BME280;48237;50.140;8.486;2023-04-03T12:31:42;100776.00;;;2.85;53.19
62248;BME280;48237;50.140;8.486;2023-04-03T12:34:26;100766.41;;;2.47;53.85
62248;BME280;48237;50.140;8.486;2023-04-03T12:37:03;100786.79;;;2.23;52.71
62248;BME280;48237;50.140;8.486;2023-04-03T12:39:50;100774.91;;;2.74;50.74
62248;BME280;48237;50.140;8.486;2023-04-03T12:42:34;100777.32;;;2.31;52.35
62248;BME280;48237;50.140;8.486;2023-04-03T12:45:14;100765.06;;;2.76;51.37
62248;BME280;48237;50.140;8.486;2023-04-03T12:47:44;100761.34;;;2.73;53.50
62248;BME280;48237;50.140;8.486;2023-04-03T12:50:23;100764.18;;;2.55;53.19
62248;BME280;48237;50.140;8.486;2023-04-03T12:52:57;100776.14;;;2.39;52.88
62248;BME280;48237;50.140;8.486;2023-04-03T12:55:26;100752.94;;;2.86;50.21
62248;BME280;48237;50.140;8.486;2023-04-03T12:57:53;100761.13;;;2.91;51.90
62248;BME280;48237;50.140;8.486;2023-04-03T13:00:31;100771.95;;;2.14;52.03
62248;BME280;48237;50.140;8.486;2023-04-03T13:02:59;100757.50;;;2.53;50.63
62248;BME280;48237;50.140;8.486;2023-04-03T13:05:28;100761.73;;;2.89;51.50
62248;BME280;48237;50.140;8.486;2023-04-03T13:08:00;100752.41;;;2.51;50.35
62248;BME280;48237;50.140;8.486;2023-04-03T13:10:29;100776.49;;;2.73;49.51
62248;BME280;48237;50.140;8.486;2023-04-03T13:12:58;100750.86;;;2.71;48.40
62248;BME280;48237;50.140;8.486;2023-04-03T13:15:41;100758.21;;;2.93;50.03
62248;BME280;48237;50.140;8.486;2023-04-03T13:18:22;100748.25;;;3.21;49.69